Flight Track Log - Related Links

Times and Time Zones

All times are in EDT time to prevent confusion due to time zone crossing. See the N301DM flight status page for this flight to view local times or setup timezone preferences in your user account.

Time Position Orientation Groundspeed Altitude Reporting Facility
EDT Latitude Longitude Course Direction KTS MPH feet Rate Location/Type
Wed 05:03:51 PM 39.8128 -74.4381 56° Northeast 207 238 11,100  Level New York Center
Wed 05:04:51 PM 39.7781 -74.4822 224° Southwest 164 189 12,800 1,587 Climbing New York Center
Wed 05:05:52 PM 39.7475 -74.5264 228° Southwest 164 189 14,300 1,138 Climbing New York Center
Wed 05:06:00 PM -19.8487 -160.2878 119° Southeast  Level Estimated
Wed 05:07:00 PM -19.8119 -160.2297 56° Northeast  Level Estimated
Wed 05:08:00 PM -19.7750 -160.1716 56° Northeast  Level Estimated
Wed 05:08:06 PM 39.6636 -74.6075 217° Southwest 170 196 16,500  Level Washington Center
Wed 05:09:05 PM 39.6139 -74.6406 207° Southwest 192 221 16,500  Level Washington Center
Wed 05:10:05 PM 39.5642 -74.6764 209° Southwest 203 234 16,500  Level Washington Center
Wed 05:11:05 PM 39.5122 -74.7119 208° Southwest 209 241 16,500  Level Washington Center
Wed 05:12:06 PM 39.4647 -74.7447 208° Southwest 209 241 16,500  Level Washington Center
Wed 05:13:06 PM 39.4150 -74.7803 209° Southwest 204 235 16,500  Level Washington Center
Wed 05:14:05 PM 39.3672 -74.8131 208° Southwest 204 235 16,500  Level Washington Center
Wed 05:15:05 PM 39.3153 -74.8486 208° Southwest 209 241 16,500  Level Washington Center
Wed 05:16:05 PM 39.2656 -74.8864 210° Southwest 209 241 16,500 197 Level Washington Center
Wed 05:17:07 PM 39.2156 -74.9192 207° Southwest 209 241 16,900 550 Climbing Washington Center
Wed 05:18:05 PM 39.1678 -74.9517 208° Southwest 203 234 17,600 1,008 Climbing Washington Center
Wed 05:19:06 PM 39.1200 -74.9842 208° Southwest 203 234 18,900 1,180 Climbing Washington Center
Wed 05:20:07 PM 39.0764 -75.0142 208° Southwest 198 228 20,000 1,059 Climbing Washington Center
Wed 05:21:05 PM 39.0286 -75.0439 206° Southwest 193 222 21,000 1,008 Climbing Washington Center
Wed 05:22:06 PM 38.9831 -75.0708 205° Southwest 193 222 22,000 992 Climbing Washington Center
Wed 05:23:06 PM 38.9372 -75.1006 207° Southwest 193 222 23,000 992 Climbing Washington Center
Wed 05:24:07 PM 38.8936 -75.1383 214° Southwest 193 222 24,000 1,050 Climbing Washington Center
Wed 05:25:06 PM 38.8519 -75.1653 207° Southwest 188 216 25,100 1,008 Climbing Washington Center
Wed 05:26:06 PM 38.8083 -75.1947 208° Southwest 183 211 26,000 496 Climbing Washington Center
Wed 05:27:07 PM 38.7647 -75.2294 212° Southwest 183 211 26,100 50 Climbing Washington Center
Wed 05:28:07 PM 38.7064 -75.2644 205° Southwest 203 234 26,100  Level Washington Center
Wed 05:29:06 PM 38.6503 -75.3072 211° Southwest 228 262 26,100  Level Washington Center
Wed 05:30:06 PM 38.5900 -75.3419 204° Southwest 234 269 26,100  Level Washington Center
Wed 05:31:07 PM 38.5317 -75.3872 211° Southwest 239 275 26,100  Level Washington Center
Wed 05:32:05 PM 38.4711 -75.4247 206° Southwest 245 282 26,100  Level Washington Center
Wed 05:33:06 PM 38.4108 -75.4644 207° Southwest 245 282 26,100  Level Washington Center
Wed 05:34:07 PM 38.3503 -75.5044 207° Southwest 245 282 26,100  Level Washington Center
Wed 05:35:07 PM 38.2961 -75.5547 216° Southwest 252 290 26,100  Level Washington Center
Wed 05:36:07 PM 38.2439 -75.6075 218° Southwest 252 290 26,100  Level Washington Center
Wed 05:37:05 PM 38.1939 -75.6500 214° Southwest 245 282 26,100  Level Washington Center
Wed 05:38:06 PM 38.1419 -75.7000 217° Southwest 245 282 26,100  Level Washington Center
Wed 05:39:07 PM 38.0875 -75.7528 217° Southwest 245 282 26,100  Level Washington Center
Wed 05:40:05 PM 38.0353 -75.8106 221° Southwest 245 282 26,100  Level Washington Center
Wed 05:41:05 PM 37.9769 -75.8525 210° Southwest 245 282 26,100  Level Washington Center
Wed 05:42:06 PM 37.9267 -75.9025 218° Southwest 245 282 26,100  Level Washington Center
Wed 05:43:06 PM 37.8722 -75.9494 214° Southwest 245 282 26,100  Level Washington Center
Wed 05:44:06 PM 37.8200 -76.0019 218° Southwest 245 282 26,100  Level Washington Center
Wed 05:45:06 PM 37.7678 -76.0567 220° Southwest 245 282 26,100  Level Washington Center
Wed 05:46:07 PM 37.7153 -76.1064 217° Southwest 245 282 26,100  Level Washington Center
Wed 05:47:07 PM 37.6547 -76.1611 216° Southwest 250 288 26,100  Level Washington Center
Wed 05:48:05 PM 37.6022 -76.2000 210° Southwest 250 288 26,100  Level Washington Center
Wed 05:49:06 PM 37.5478 -76.2519 217° Southwest 244 281 26,100  Level Washington Center
Wed 05:50:07 PM 37.4953 -76.3011 217° Southwest 244 281 26,100  Level Washington Center
Wed 05:51:05 PM 37.4408 -76.3503 216° Southwest 244 281 26,100  Level Washington Center
Wed 05:52:06 PM 37.3864 -76.4022 217° Southwest 244 281 26,100  Level Washington Center
Wed 05:53:06 PM 37.3317 -76.4486 214° Southwest 244 281 26,100  Level Washington Center
Wed 05:54:07 PM 37.2772 -76.5003 217° Southwest 244 281 26,100  Level Washington Center
Wed 05:55:05 PM 37.2225 -76.5517 217° Southwest 244 281 26,100  Level Washington Center
Wed 05:56:06 PM 37.1678 -76.6006 215° Southwest 244 281 26,100  Level Washington Center
Wed 05:57:07 PM 37.1153 -76.6467 215° Southwest 244 281 26,100  Level Washington Center
Wed 05:58:07 PM 37.0606 -76.6956 215° Southwest 244 281 26,100  Level Washington Center
Wed 05:59:05 PM 37.0058 -76.7467 217° Southwest 244 281 26,100  Level Washington Center
Wed 06:00:06 PM 36.9533 -76.7978 218° Southwest 244 281 26,100  Level Washington Center
Wed 06:01:06 PM 36.8986 -76.8436 214° Southwest 244 281 26,100  Level Washington Center
Wed 06:02:07 PM 36.8458 -76.8947 218° Southwest 244 281 26,100  Level Washington Center
Wed 06:03:07 PM 36.7911 -76.9406 214° Southwest 244 281 26,100  Level Washington Center
Wed 06:04:05 PM 36.7342 -76.9939 217° Southwest 244 281 26,100  Level Washington Center
Wed 06:05:05 PM 36.6794 -77.0422 215° Southwest 244 281 26,100  Level Washington Center
Wed 06:06:06 PM 36.6286 -77.0931 219° Southwest 244 281 26,100  Level Washington Center
Wed 06:07:07 PM 36.5758 -77.1439 218° Southwest 244 281 26,100  Level Washington Center
Wed 06:08:07 PM 36.5208 -77.1944 216° Southwest 244 281 26,100  Level Washington Center
Wed 06:09:05 PM 36.4681 -77.2475 219° Southwest 244 281 26,100  Level Washington Center
Wed 06:10:06 PM 36.4131 -77.2953 215° Southwest 249 287 26,100  Level Washington Center
Wed 06:11:07 PM 36.3581 -77.3483 218° Southwest 249 287 26,100  Level Washington Center
Wed 06:12:07 PM 36.3053 -77.4014 219° Southwest 254 292 26,100  Level Washington Center
Wed 06:13:05 PM 36.2500 -77.4517 216° Southwest 254 292 26,100  Level Washington Center
Wed 06:14:06 PM 36.2036 -77.4967 218° Southwest 254 292 26,100  Level Washington Center
Wed 06:15:07 PM 36.1506 -77.5469 217° Southwest 254 292 26,100  Level Washington Center
Wed 06:16:05 PM 36.0956 -77.5969 216° Southwest 254 292 26,100  Level Washington Center
Wed 06:17:06 PM 36.0444 -77.6497 220° Southwest 254 292 26,100  Level Washington Center
Wed 06:18:07 PM 35.9975 -77.7100 226° Southwest 248 285 26,100  Level Washington Center
Wed 06:19:07 PM 35.9528 -77.7706 228° Southwest 248 285 26,100  Level Washington Center
Wed 06:20:05 PM 35.9078 -77.8333 229° Southwest 248 285 26,100  Level Washington Center
Wed 06:21:06 PM 35.8606 -77.8936 226° Southwest 248 285 26,100  Level Washington Center
Wed 06:22:07 PM 35.8014 -77.9378 211° Southwest 243 280 26,100  Level Washington Center
Wed 06:23:07 PM 35.7400 -77.9847 212° Southwest 255 293 26,100  Level Washington Center
Wed 06:24:05 PM 35.6847 -78.0292 213° Southwest 255 293 26,100  Level Washington Center
Wed 06:25:05 PM 35.6256 -78.0681 208° Southwest 255 293 26,100  Level Washington Center
Wed 06:26:07 PM 35.5683 -78.1122 212° Southwest 255 293 26,100  Level Washington Center
Wed 06:27:07 PM 35.5028 -78.1561 209° Southwest 255 293 26,100  Level Washington Center
Wed 06:28:05 PM 35.4411 -78.2000 210° Southwest 255 293 26,100  Level Washington Center
Wed 06:29:06 PM 35.3819 -78.2414 210° Southwest 255 293 26,100  Level Washington Center
Wed 06:30:06 PM 35.3203 -78.2853 210° Southwest 255 293 26,100  Level Washington Center
Wed 06:31:06 PM 35.2608 -78.3292 211° Southwest 255 293 26,100  Level Washington Center
Wed 06:32:07 PM 35.1975 -78.3675 206° Southwest 255 293 26,100  Level Washington Center
Wed 06:33:05 PM 35.1381 -78.4061 208° Southwest 255 293 26,100  Level Washington Center
Wed 06:34:06 PM 35.0767 -78.4447 207° Southwest 255 293 26,100  Level Washington Center
Wed 06:35:07 PM 35.0131 -78.4856 208° Southwest 255 293 26,100  Level Washington Center
Wed 06:37:11 PM 34.8906 -78.5597 206° Southwest 243 280 26,100  Level Jacksonville Center
Wed 06:38:11 PM 34.8356 -78.5956 208° Southwest 238 274 26,100  Level Jacksonville Center
Wed 06:39:11 PM 34.7783 -78.6339 209° Southwest 233 268 26,100  Level Jacksonville Center
Wed 06:40:11 PM 34.7211 -78.6669 205° Southwest 233 268 26,100  Level Jacksonville Center
Wed 06:41:12 PM 34.6639 -78.7025 207° Southwest 238 274 26,100  Level Jacksonville Center
Wed 06:42:11 PM 34.6067 -78.7381 207° Southwest 238 274 26,100  Level Jacksonville Center
Wed 06:43:11 PM 34.5472 -78.7736 206° Southwest 238 274 26,100 -50 Level Jacksonville Center
Wed 06:44:11 PM 34.4822 -78.8222 212° Southwest 238 274 26,000 -149 Descending Jacksonville Center
Wed 06:45:12 PM 34.4250 -78.8600 209° Southwest 238 274 25,800 -645 Descending Jacksonville Center
Wed 06:46:12 PM 34.3658 -78.9056 212° Southwest 250 288 24,700 -1,059 Descending Jacksonville Center
Wed 06:47:11 PM 34.3111 -78.9508 214° Southwest 250 288 23,700 -1,050 Descending Jacksonville Center
Wed 06:48:12 PM 34.2561 -78.9936 213° Southwest 250 288 22,600 -1,041 Descending Jacksonville Center
Wed 06:49:12 PM 34.1989 -79.0339 210° Southwest 244 281 21,600 -1,000 Descending Jacksonville Center
Wed 06:50:12 PM 34.1394 -79.0714 208° Southwest 244 281 20,600 -1,050 Descending Jacksonville Center
Wed 06:51:12 PM 34.0781 -79.1069 206° Southwest 249 287 19,500 -1,059 Descending Jacksonville Center
Wed 06:52:11 PM 34.0206 -79.1394 205° Southwest 244 281 18,500 -1,000 Descending Jacksonville Center
Wed 06:53:12 PM 33.9611 -79.1744 206° Southwest 239 275 17,500 -1,050 Descending Jacksonville Center
Wed 06:54:11 PM 33.9056 -79.2069 206° Southwest 239 275 16,400 -807 Descending Jacksonville Center
Wed 06:55:11 PM 33.8483 -79.2417 207° Southwest 239 275 15,900 -250 Descending Jacksonville Center
Wed 06:56:11 PM 33.7928 -79.2739 206° Southwest 233 268 15,900  Level Jacksonville Center
Wed 06:57:11 PM 33.7375 -79.3039 204° Southwest 233 268 15,900 -198 Level Jacksonville Center
Wed 06:58:12 PM 33.6922 -79.3306 206° Southwest 226 260 15,500 -650 Descending Jacksonville Center
Wed 06:59:11 PM 33.6347 -79.3628 205° Southwest 220 253 14,600 -850 Descending Jacksonville Center
Wed 07:00:12 PM 33.5792 -79.3925 204° Southwest 220 253 13,800 -793 Descending Jacksonville Center
Wed 07:01:12 PM 33.5236 -79.4244 206° Southwest 215 247 13,000 -807 Descending Jacksonville Center
Wed 07:02:11 PM 33.4725 -79.4539 206° Southwest 215 247 12,200 -800 Descending Jacksonville Center
Wed 07:03:12 PM 33.4189 -79.4858 206° Southwest 215 247 11,400 -600 Descending Jacksonville Center
Wed 07:04:11 PM 33.3697 -79.5125 204° Southwest 215 247 11,000 -200 Descending Jacksonville Center
Wed 07:05:12 PM 33.3183 -79.5444 207° Southwest 210 242 11,000 -550 Level Jacksonville Center
Wed 07:06:11 PM 33.2689 -79.5711 204° Southwest 210 242 9,900 -1,100 Descending Jacksonville Center
Wed 07:07:12 PM 33.2217 -79.6003 207° Southwest 205 236 8,800 -1,091 Descending Jacksonville Center
Wed 07:08:12 PM 33.1722 -79.6267 204° Southwest 205 236 7,700 -1,100 Descending Jacksonville Center
Wed 07:09:12 PM 33.1250 -79.6533 205° Southwest 194 223 6,600 -1,100 Descending Jacksonville Center
Wed 07:13:00 PM 33.0186 -79.7074 203° Southwest  Level FlightAware Approximate
Wed 07:20:00 PM 32.8978 -79.7829 140° Southeast  Level Estimated
Wed 07:21:00 PM 32.8978 -79.7829 140° Southeast  Level Estimated
Wed 07:22:00 PM 32.8978 -79.7829 140° Southeast  Level Estimated
Wed 07:23:00 PM 32.8978 -79.7829 140° Southeast  Level Estimated
Wed 07:24:00 PM 32.8978 -79.7829 140° Southeast  Level Estimated
Wed 07:25:00 PM 32.8978 -79.7829 140° Southeast  Level Estimated
Wed 07:26:00 PM 32.8978 -79.7829 140° Southeast  Level Estimated
Wed 07:27:00 PM 32.8978 -79.7829 140° Southeast  Level Estimated
Wed 07:28:00 PM 32.8978 -79.7829 140° Southeast  Level Estimated
Wed 07:29:00 PM 32.8978 -79.7829 140° Southeast  Level Estimated
Wed 07:30:00 PM 32.8978 -79.7829 140° Southeast  Level Estimated

Login

Don't have an account? Register now (free) for customized features, flight alerts, and more!